createdAt,value
2022-12-29T00:01:45.131Z,6.89
2022-12-29T00:04:15.353Z,6.95
2022-12-29T00:06:43.945Z,6.97
2022-12-29T00:09:15.473Z,7.01
2022-12-29T00:11:43.611Z,6.98
2022-12-29T00:14:30.849Z,7.04
2022-12-29T00:16:59.134Z,7.07
2022-12-29T00:19:45.570Z,7.06
2022-12-29T00:22:33.838Z,7.05
2022-12-29T00:25:20.650Z,7.04
2022-12-29T00:28:07.543Z,6.98
2022-12-29T00:30:56.112Z,6.93
2022-12-29T00:33:50.949Z,6.81
2022-12-29T00:36:24.852Z,6.78
2022-12-29T00:39:14.997Z,6.81
2022-12-29T00:42:08.599Z,6.80
2022-12-29T00:44:36.141Z,6.73
2022-12-29T00:47:05.460Z,6.71
2022-12-29T00:49:34.255Z,6.68
2022-12-29T00:52:05.862Z,6.61
2022-12-29T00:54:35.660Z,6.54
2022-12-29T00:57:05.266Z,6.51
2022-12-29T00:59:32.855Z,6.43
2022-12-29T01:02:00.415Z,6.46
2022-12-29T01:04:29.524Z,6.47
2022-12-29T01:06:57.013Z,6.31
2022-12-29T01:09:43.560Z,6.23
2022-12-29T01:12:11.371Z,6.13
2022-12-29T01:14:39.554Z,6.13
2022-12-29T01:17:07.545Z,6.12
2022-12-29T01:19:35.095Z,6.08
2022-12-29T01:22:02.764Z,6.03
2022-12-29T01:24:30.276Z,5.89
2022-12-29T01:26:57.800Z,5.91
2022-12-29T01:29:25.324Z,5.86
2022-12-29T01:31:52.946Z,5.89
2022-12-29T01:34:20.551Z,5.77
2022-12-29T01:36:48.131Z,5.80
2022-12-29T01:39:15.745Z,5.72
2022-12-29T01:41:43.788Z,5.77
2022-12-29T01:44:50.029Z,5.82
2022-12-29T01:47:29.761Z,5.84
2022-12-29T01:50:01.358Z,5.85
2022-12-29T01:52:32.965Z,5.88
2022-12-29T01:55:04.813Z,5.88
2022-12-29T01:57:38.237Z,5.91
2022-12-29T02:00:12.963Z,5.99
2022-12-29T02:02:50.202Z,6.06
2022-12-29T02:05:47.207Z,6.12
2022-12-29T02:08:15.081Z,6.16
2022-12-29T02:10:43.917Z,6.24
2022-12-29T02:13:11.540Z,6.31
2022-12-29T02:15:41.609Z,6.36
2022-12-29T02:18:15.122Z,6.42
2022-12-29T02:21:01.209Z,6.52
2022-12-29T02:24:02.268Z,6.55
2022-12-29T02:27:20.564Z,6.49
2022-12-29T02:29:58.542Z,6.51
2022-12-29T02:32:53.709Z,6.51
2022-12-29T02:35:38.545Z,6.47
2022-12-29T02:38:35.733Z,6.47
2022-12-29T02:41:14.301Z,6.42
2022-12-29T02:44:04.988Z,6.46
2022-12-29T02:46:46.918Z,6.47
2022-12-29T02:49:23.882Z,6.41
2022-12-29T02:52:19.206Z,6.41
2022-12-29T02:54:50.331Z,6.46
2022-12-29T02:57:23.843Z,6.47
2022-12-29T02:59:58.403Z,6.44
2022-12-29T03:02:44.584Z,6.47
2022-12-29T03:05:30.261Z,6.44
2022-12-29T03:08:22.031Z,6.43
2022-12-29T03:11:05.823Z,6.41
2022-12-29T03:13:55.328Z,6.32
2022-12-29T03:17:05.703Z,6.18
2022-12-29T03:19:47.003Z,6.13
2022-12-29T03:22:28.521Z,6.08
2022-12-29T03:25:05.455Z,6.08
2022-12-29T03:27:43.493Z,6.03
2022-12-29T03:30:12.495Z,6.04
2022-12-29T03:32:56.486Z,6.04
2022-12-29T03:35:34.103Z,6.10
2022-12-29T03:38:18.485Z,6.03
2022-12-29T03:40:55.043Z,5.91
2022-12-29T03:43:25.464Z,5.89
2022-12-29T03:45:52.954Z,5.86
2022-12-29T03:48:20.513Z,5.86
2022-12-29T03:50:50.384Z,5.93
2022-12-29T03:53:20.514Z,5.93
2022-12-29T03:55:48.341Z,5.89
2022-12-29T03:58:17.119Z,5.91
2022-12-29T04:00:53.420Z,5.94
2022-12-29T04:03:21.115Z,5.92
2022-12-29T04:05:48.630Z,5.96
2022-12-29T04:08:16.427Z,6.03
2022-12-29T04:10:44.885Z,6.14
2022-12-29T04:13:14.238Z,6.19
2022-12-29T04:15:43.669Z,6.21
2022-12-29T04:18:12.705Z,6.31
2022-12-29T04:20:58.806Z,6.33
2022-12-29T04:23:26.547Z,6.40
2022-12-29T04:25:54.516Z,6.41
2022-12-29T04:28:22.058Z,6.46
2022-12-29T04:30:55.503Z,6.48
2022-12-29T04:33:43.236Z,6.50
2022-12-29T04:36:11.815Z,6.52
2022-12-29T04:38:39.869Z,6.53
2022-12-29T04:41:08.623Z,6.57
2022-12-29T04:43:38.752Z,6.56
2022-12-29T04:46:41.598Z,6.57
2022-12-29T04:49:13.121Z,6.61
2022-12-29T04:52:04.014Z,6.71
2022-12-29T04:54:31.713Z,6.80
2022-12-29T04:57:08.487Z,6.82
2022-12-29T04:59:38.749Z,6.83
2022-12-29T05:02:06.559Z,6.86
2022-12-29T05:04:36.078Z,6.99
2022-12-29T05:07:03.781Z,7.03
2022-12-29T05:09:31.398Z,7.08
2022-12-29T05:12:01.390Z,7.18
2022-12-29T05:14:30.383Z,7.45
2022-12-29T05:16:58.151Z,7.56
2022-12-29T05:19:26.909Z,7.65
2022-12-29T05:21:55.503Z,7.67
2022-12-29T05:28:36.083Z,7.71
2022-12-29T05:31:13.000Z,7.62
2022-12-29T05:33:40.807Z,7.57
2022-12-29T05:36:09.770Z,7.52
2022-12-29T05:38:40.783Z,7.53
2022-12-29T05:41:08.326Z,7.53
2022-12-29T05:43:56.092Z,7.50
2022-12-29T05:46:32.823Z,7.44
2022-12-29T05:49:36.470Z,7.42
2022-12-29T05:52:19.207Z,7.40
2022-12-29T05:54:46.819Z,7.38
2022-12-29T05:57:18.080Z,7.40
2022-12-29T05:59:51.458Z,7.44
2022-12-29T06:02:19.103Z,7.54
2022-12-29T06:04:46.723Z,7.51
2022-12-29T06:07:14.367Z,7.52
2022-12-29T06:09:44.639Z,7.53
2022-12-29T06:12:12.452Z,7.62
2022-12-29T06:14:41.830Z,7.67
2022-12-29T06:17:09.410Z,7.67
2022-12-29T06:19:37.401Z,7.66
2022-12-29T06:22:05.871Z,7.78
2022-12-29T06:24:35.852Z,7.77
2022-12-29T06:27:03.643Z,7.78
2022-12-29T06:29:31.212Z,7.75
2022-12-29T06:31:59.453Z,7.76
2022-12-29T06:34:28.307Z,7.71
2022-12-29T06:36:56.118Z,7.69
2022-12-29T06:39:23.729Z,7.64
2022-12-29T06:42:02.807Z,7.57
2022-12-29T06:44:58.717Z,7.49
2022-12-29T06:47:26.208Z,7.45
2022-12-29T06:49:53.728Z,7.50
2022-12-29T06:52:21.365Z,7.44
2022-12-29T06:54:48.871Z,7.33
2022-12-29T06:57:16.408Z,7.23
2022-12-29T06:59:43.955Z,7.17
2022-12-29T07:02:12.607Z,7.17
2022-12-29T07:04:40.220Z,7.08
2022-12-29T07:07:07.810Z,6.98
2022-12-29T07:09:35.296Z,6.96
2022-12-29T07:12:03.111Z,6.93
2022-12-29T07:14:31.108Z,6.97
2022-12-29T07:16:58.826Z,6.98
2022-12-29T07:19:26.293Z,7.03
2022-12-29T07:21:55.869Z,7.04
2022-12-29T07:24:23.347Z,6.98
2022-12-29T07:26:50.950Z,7.04
2022-12-29T07:29:18.619Z,7.09
2022-12-29T07:31:46.368Z,7.17
2022-12-29T07:34:13.848Z,7.29
2022-12-29T07:36:41.668Z,7.47
2022-12-29T07:39:09.334Z,7.58
2022-12-29T07:41:36.988Z,7.59
2022-12-29T07:44:05.007Z,7.63
2022-12-29T07:46:57.616Z,7.61
2022-12-29T07:49:26.476Z,7.66
2022-12-29T07:51:53.959Z,7.62
2022-12-29T07:54:21.600Z,7.49
2022-12-29T07:56:49.302Z,7.41
2022-12-29T07:59:17.007Z,7.21
2022-12-29T08:01:44.651Z,7.15
2022-12-29T08:04:12.609Z,7.03
2022-12-29T08:06:40.206Z,7.03
2022-12-29T08:09:16.432Z,7.00
2022-12-29T08:11:47.559Z,7.04
2022-12-29T08:14:15.083Z,7.06
2022-12-29T08:16:42.692Z,7.12
2022-12-29T08:19:13.025Z,7.19
2022-12-29T08:21:41.135Z,7.30
2022-12-29T08:24:10.298Z,7.40
2022-12-29T08:26:38.027Z,7.44
2022-12-29T08:29:05.591Z,7.48
2022-12-29T08:31:33.222Z,7.50
2022-12-29T08:34:01.350Z,7.62
2022-12-29T08:36:28.848Z,7.64
2022-12-29T08:38:56.418Z,7.67
2022-12-29T08:41:24.347Z,7.67
2022-12-29T08:43:51.969Z,7.70
2022-12-29T08:46:20.659Z,7.78
2022-12-29T08:48:48.144Z,7.79
2022-12-29T08:51:20.147Z,7.73
2022-12-29T08:53:50.390Z,7.69
2022-12-29T08:56:18.513Z,7.64
2022-12-29T08:58:52.259Z,7.70
2022-12-29T09:01:20.983Z,7.73
2022-12-29T09:06:40.202Z,7.85
2022-12-29T09:09:08.344Z,7.93
2022-12-29T09:11:35.845Z,7.94
2022-12-29T09:14:03.593Z,7.91
2022-12-29T09:16:31.175Z,7.98
2022-12-29T09:18:58.979Z,8.03
2022-12-29T09:21:26.455Z,8.07
2022-12-29T09:23:54.145Z,8.07
2022-12-29T09:26:21.703Z,8.04
2022-12-29T09:28:49.350Z,8.04
2022-12-29T09:31:16.861Z,8.05
2022-12-29T09:33:44.453Z,8.04
2022-12-29T09:36:11.896Z,8.08
2022-12-29T09:38:39.519Z,8.00
2022-12-29T09:41:19.683Z,8.00
2022-12-29T09:43:50.054Z,8.03
2022-12-29T09:46:28.341Z,8.03
2022-12-29T09:49:21.921Z,8.10
2022-12-29T09:51:56.024Z,8.10
2022-12-29T09:55:03.780Z,8.09
2022-12-29T09:57:37.811Z,8.04
2022-12-29T10:00:20.569Z,8.02
2022-12-29T10:02:56.256Z,7.96
2022-12-29T10:06:02.330Z,7.97
2022-12-29T10:08:56.069Z,7.79
2022-12-29T10:11:45.003Z,7.75
2022-12-29T10:14:21.875Z,7.76
2022-12-29T10:17:02.285Z,7.81
2022-12-29T10:19:38.810Z,7.76
2022-12-29T10:22:39.071Z,7.83
2022-12-29T10:25:18.893Z,7.84
2022-12-29T10:27:49.894Z,7.81
2022-12-29T10:30:19.353Z,7.80
2022-12-29T10:32:55.201Z,7.91
2022-12-29T10:35:27.803Z,7.87
2022-12-29T10:38:04.739Z,7.81
2022-12-29T10:41:15.115Z,7.90
2022-12-29T10:43:55.381Z,7.95
2022-12-29T10:46:26.520Z,8.04
2022-12-29T10:48:54.148Z,8.07
2022-12-29T10:51:29.600Z,8.07
2022-12-29T10:54:00.463Z,8.10
2022-12-29T10:56:53.385Z,8.13
2022-12-29T10:59:25.260Z,8.17
2022-12-29T11:02:01.888Z,8.24
2022-12-29T11:04:49.245Z,8.28
2022-12-29T11:07:25.115Z,8.38
2022-12-29T11:09:55.340Z,8.36
2022-12-29T11:12:29.618Z,8.46
2022-12-29T11:15:09.727Z,8.59
2022-12-29T11:18:00.764Z,8.45
2022-12-29T11:20:39.917Z,8.51
2022-12-29T11:23:25.030Z,8.61
2022-12-29T11:26:19.061Z,8.67
2022-12-29T11:29:05.062Z,8.85
2022-12-29T11:31:42.094Z,9.00
2022-12-29T11:34:10.323Z,9.15
2022-12-29T11:36:39.543Z,9.30
2022-12-29T11:39:13.744Z,9.19
2022-12-29T11:41:41.673Z,9.16
2022-12-29T11:44:13.728Z,9.06
2022-12-29T11:46:42.944Z,9.05
2022-12-29T11:49:14.877Z,8.98
2022-12-29T11:51:47.912Z,9.02
2022-12-29T11:54:38.279Z,9.08
2022-12-29T11:57:18.243Z,9.06
2022-12-29T11:59:57.259Z,9.04
2022-12-29T12:02:40.533Z,8.97
2022-12-29T12:05:13.713Z,9.00
2022-12-29T12:07:48.362Z,9.00
2022-12-29T12:10:31.174Z,9.02
2022-12-29T12:13:09.318Z,9.04
2022-12-29T12:15:56.784Z,9.08
2022-12-29T12:18:59.091Z,9.11
2022-12-29T12:21:33.413Z,9.08
2022-12-29T12:24:10.952Z,9.16
2022-12-29T12:26:59.868Z,9.23
2022-12-29T12:29:38.271Z,9.36
2022-12-29T12:32:15.224Z,9.52
2022-12-29T12:34:45.275Z,9.66
2022-12-29T12:37:24.927Z,9.79
2022-12-29T12:40:29.759Z,10.20
2022-12-29T12:43:15.608Z,10.37
2022-12-29T12:45:55.038Z,10.58
2022-12-29T12:48:22.355Z,10.78
2022-12-29T12:51:10.648Z,11.03
2022-12-29T12:53:56.557Z,11.20
2022-12-29T12:56:31.193Z,11.33
2022-12-29T12:59:10.668Z,11.53
2022-12-29T13:01:44.201Z,11.63
2022-12-29T13:04:31.753Z,11.71
2022-12-29T13:07:15.712Z,11.84
2022-12-29T13:09:49.469Z,11.96
2022-12-29T13:12:31.936Z,12.08
2022-12-29T13:14:59.210Z,12.18
2022-12-29T13:17:31.498Z,12.27
2022-12-29T13:20:11.270Z,12.38
2022-12-29T13:22:54.244Z,12.42
2022-12-29T13:25:21.453Z,12.43
2022-12-29T13:27:48.659Z,12.40
2022-12-29T13:30:20.388Z,12.36
2022-12-29T13:32:56.759Z,12.30
2022-12-29T13:35:53.453Z,12.32
2022-12-29T13:38:20.743Z,12.31
2022-12-29T13:40:51.826Z,12.31
2022-12-29T13:43:20.943Z,12.29
2022-12-29T13:45:58.712Z,12.16
2022-12-29T13:48:46.214Z,12.06
2022-12-29T13:51:14.182Z,11.92
2022-12-29T13:53:42.295Z,11.84
2022-12-29T13:56:21.679Z,11.76
2022-12-29T13:58:55.387Z,11.75
2022-12-29T14:01:31.284Z,11.66
2022-12-29T14:04:00.653Z,11.61
2022-12-29T14:06:38.204Z,11.54
2022-12-29T14:09:06.587Z,11.51
2022-12-29T14:11:35.182Z,11.48
2022-12-29T14:14:30.169Z,11.50
2022-12-29T14:17:14.520Z,11.35
2022-12-29T14:19:46.390Z,11.09
2022-12-29T14:22:13.965Z,10.83
2022-12-29T14:24:45.466Z,10.53
2022-12-29T14:27:13.214Z,10.32
2022-12-29T14:29:40.402Z,10.11
2022-12-29T14:32:25.984Z,9.94
2022-12-29T14:34:54.312Z,9.86
2022-12-29T14:37:29.083Z,9.70
2022-12-29T14:40:23.365Z,9.60
2022-12-29T14:42:52.373Z,9.53
2022-12-29T14:45:19.821Z,9.59
2022-12-29T14:47:48.612Z,9.52
2022-12-29T14:50:34.300Z,9.47
2022-12-29T14:53:04.623Z,9.46
2022-12-29T14:55:41.226Z,9.37
2022-12-29T14:58:20.670Z,9.36
2022-12-29T15:00:48.093Z,9.41
2022-12-29T15:03:18.051Z,9.33
2022-12-29T15:05:47.550Z,9.31
2022-12-29T15:08:17.983Z,9.32
2022-12-29T15:10:48.892Z,9.29
2022-12-29T15:13:18.793Z,9.28
2022-12-29T15:15:46.115Z,9.23
2022-12-29T15:18:15.754Z,9.28
2022-12-29T15:20:43.573Z,9.29
2022-12-29T15:23:12.400Z,9.23
2022-12-29T15:25:49.079Z,9.22
2022-12-29T15:28:16.442Z,9.17
2022-12-29T15:30:57.196Z,9.06
2022-12-29T15:33:27.152Z,9.08
2022-12-29T15:35:56.084Z,9.00
2022-12-29T15:38:33.312Z,9.04
2022-12-29T15:41:20.865Z,9.00
2022-12-29T15:44:01.715Z,8.95
2022-12-29T15:46:31.369Z,8.90
2022-12-29T15:48:58.761Z,8.90
2022-12-29T15:51:25.983Z,8.87
2022-12-29T15:53:53.800Z,8.84
2022-12-29T15:56:21.227Z,8.85
2022-12-29T15:58:52.983Z,8.85
2022-12-29T16:01:24.568Z,8.80
2022-12-29T16:03:52.557Z,8.72
2022-12-29T16:06:39.206Z,8.67
2022-12-29T16:09:07.973Z,8.57
2022-12-29T16:11:36.681Z,8.55
2022-12-29T16:14:08.118Z,8.48
2022-12-29T16:16:40.970Z,8.45
2022-12-29T16:19:28.539Z,8.49
2022-12-29T16:21:56.151Z,8.44
2022-12-29T16:24:25.346Z,8.44
2022-12-29T16:26:55.403Z,8.35
2022-12-29T16:29:23.205Z,8.42
2022-12-29T16:32:01.497Z,8.47
2022-12-29T16:34:33.673Z,8.56
2022-12-29T16:37:01.022Z,8.69
2022-12-29T16:39:40.304Z,8.79
2022-12-29T16:42:26.247Z,8.86
2022-12-29T16:45:07.610Z,8.94
2022-12-29T16:47:34.871Z,8.96
2022-12-29T16:50:12.757Z,8.91
2022-12-29T16:52:40.265Z,8.87
2022-12-29T16:55:16.014Z,8.78
2022-12-29T16:57:44.014Z,8.67
2022-12-29T17:00:22.193Z,8.64
2022-12-29T17:02:50.667Z,8.59
2022-12-29T17:05:18.763Z,8.48
2022-12-29T17:07:46.411Z,8.53
2022-12-29T17:10:16.623Z,8.51
2022-12-29T17:12:45.114Z,8.58
2022-12-29T17:15:33.276Z,8.60
2022-12-29T17:18:01.131Z,8.62
2022-12-29T17:20:29.828Z,8.59
2022-12-29T17:22:58.063Z,8.60
2022-12-29T17:25:33.607Z,8.60
2022-12-29T17:28:05.580Z,8.65
2022-12-29T17:30:34.858Z,8.72
2022-12-29T17:33:06.574Z,8.77
2022-12-29T17:35:33.973Z,8.86
2022-12-29T17:38:01.247Z,8.86
2022-12-29T17:40:30.369Z,8.85
2022-12-29T17:42:58.464Z,8.87
2022-12-29T17:45:32.610Z,8.89
2022-12-29T17:48:02.767Z,8.86
2022-12-29T17:50:30.937Z,8.90
2022-12-29T17:53:00.936Z,8.92
2022-12-29T17:55:36.776Z,8.89
2022-12-29T17:58:21.601Z,8.85
2022-12-29T18:00:50.019Z,8.82
2022-12-29T18:03:18.998Z,8.81
2022-12-29T18:05:46.477Z,8.77
2022-12-29T18:08:13.705Z,8.69
2022-12-29T18:10:41.219Z,8.61
2022-12-29T18:13:15.763Z,8.56
2022-12-29T18:15:43.100Z,8.47
2022-12-29T18:18:11.886Z,8.40
2022-12-29T18:20:39.464Z,8.34
2022-12-29T18:23:07.396Z,8.23
2022-12-29T18:25:49.820Z,8.11
2022-12-29T18:28:17.276Z,8.04
2022-12-29T18:30:44.500Z,8.03
2022-12-29T18:33:19.357Z,8.00
2022-12-29T18:36:02.697Z,7.96
2022-12-29T18:38:30.040Z,7.94
2022-12-29T18:40:57.901Z,7.88
2022-12-29T18:43:25.294Z,7.84
2022-12-29T18:45:52.493Z,7.82
2022-12-29T18:48:20.185Z,7.81
2022-12-29T18:50:49.359Z,7.77
2022-12-29T18:53:17.574Z,7.73
2022-12-29T18:55:44.814Z,7.71
2022-12-29T18:58:15.095Z,7.76
2022-12-29T19:00:42.638Z,7.72
2022-12-29T19:03:14.264Z,7.64
2022-12-29T19:05:42.721Z,7.59
2022-12-29T19:08:10.613Z,7.54
2022-12-29T19:10:38.074Z,7.52
2022-12-29T19:13:05.871Z,7.56
2022-12-29T19:15:35.576Z,7.58
2022-12-29T19:20:52.191Z,7.56
2022-12-29T19:23:20.705Z,7.58
2022-12-29T19:25:48.321Z,7.64
2022-12-29T19:28:17.536Z,7.69
2022-12-29T19:30:49.548Z,7.69
2022-12-29T19:33:19.350Z,7.69
2022-12-29T19:35:46.763Z,7.73
2022-12-29T19:38:14.303Z,7.77
2022-12-29T19:40:42.837Z,7.89
2022-12-29T19:43:13.935Z,7.97
2022-12-29T19:45:42.039Z,8.02
2022-12-29T19:48:12.578Z,8.07
2022-12-29T19:50:39.949Z,8.12
2022-12-29T19:53:07.236Z,8.26
2022-12-29T19:55:34.535Z,8.33
2022-12-29T19:58:01.724Z,8.40
2022-12-29T20:00:29.015Z,8.48
2022-12-29T20:02:56.301Z,8.59
2022-12-29T20:05:23.822Z,8.76
2022-12-29T20:07:51.141Z,8.86
2022-12-29T20:10:18.465Z,8.95
2022-12-29T20:12:45.726Z,9.08
2022-12-29T20:15:15.189Z,8.98
2022-12-29T20:20:29.871Z,8.83
2022-12-29T20:22:57.912Z,8.79
2022-12-29T20:28:12.526Z,8.67
2022-12-29T20:30:39.758Z,8.59
2022-12-29T20:33:08.853Z,8.58
2022-12-29T20:35:37.621Z,8.50
2022-12-29T20:38:05.124Z,8.44
2022-12-29T20:40:32.365Z,8.38
2022-12-29T20:42:59.555Z,8.40
2022-12-29T20:45:26.893Z,8.36
2022-12-29T20:47:54.915Z,8.31
2022-12-29T20:50:22.152Z,8.22
2022-12-29T20:52:49.462Z,8.18
2022-12-29T20:55:16.665Z,8.19
2022-12-29T21:00:34.145Z,8.07
2022-12-29T21:03:01.692Z,8.11
2022-12-29T21:05:29.157Z,8.10
2022-12-29T21:07:56.538Z,7.98
2022-12-29T21:10:23.755Z,7.91
2022-12-29T21:12:51.044Z,7.80
2022-12-29T21:15:18.395Z,7.68
2022-12-29T21:17:45.726Z,7.57
2022-12-29T21:20:20.537Z,7.47
2022-12-29T21:22:48.704Z,7.33
2022-12-29T21:25:16.015Z,7.21
2022-12-29T21:27:44.363Z,7.07
2022-12-29T21:30:12.493Z,7.02
2022-12-29T21:32:40.511Z,7.00
2022-12-29T21:35:08.509Z,6.93
2022-12-29T21:37:36.169Z,6.85
2022-12-29T21:40:04.728Z,6.82
2022-12-29T21:42:32.134Z,6.79
2022-12-29T21:45:20.850Z,6.77
2022-12-29T21:48:07.564Z,6.77
2022-12-29T21:50:57.607Z,6.72
2022-12-29T21:53:37.951Z,6.66
2022-12-29T21:56:13.423Z,6.61
2022-12-29T21:59:00.564Z,6.57
2022-12-29T22:01:47.222Z,6.57
2022-12-29T22:04:34.587Z,6.53
2022-12-29T22:07:21.305Z,6.57
2022-12-29T22:10:06.884Z,6.58
2022-12-29T22:12:53.134Z,6.58
2022-12-29T22:15:20.557Z,6.50
2022-12-29T22:17:52.393Z,6.50
2022-12-29T22:20:20.631Z,6.42
2022-12-29T22:22:47.837Z,6.35
2022-12-29T22:25:15.346Z,6.34
2022-12-29T22:27:42.973Z,6.27
2022-12-29T22:30:10.535Z,6.25
2022-12-29T22:32:37.690Z,6.34
2022-12-29T22:35:08.021Z,6.40
2022-12-29T22:37:36.604Z,6.41
2022-12-29T22:40:05.464Z,6.42
2022-12-29T22:42:33.250Z,6.42
2022-12-29T22:45:00.389Z,6.36
2022-12-29T22:47:27.735Z,6.35
2022-12-29T22:49:54.905Z,6.34
2022-12-29T22:52:22.672Z,6.39
2022-12-29T22:54:49.917Z,6.47
2022-12-29T22:57:17.193Z,6.48
2022-12-29T22:59:44.595Z,6.44
2022-12-29T23:02:11.979Z,6.40
2022-12-29T23:07:26.460Z,6.42
2022-12-29T23:09:53.633Z,6.43
2022-12-29T23:12:20.940Z,6.43
2022-12-29T23:14:48.078Z,6.38
2022-12-29T23:17:15.360Z,6.41
2022-12-29T23:19:42.655Z,6.42
2022-12-29T23:22:09.961Z,6.41
2022-12-29T23:24:37.976Z,6.43
2022-12-29T23:27:05.281Z,6.45
2022-12-29T23:29:32.556Z,6.51
2022-12-29T23:31:59.804Z,6.49
2022-12-29T23:34:27.124Z,6.51
2022-12-29T23:36:54.405Z,6.50
2022-12-29T23:39:25.960Z,6.53
2022-12-29T23:41:53.218Z,6.61
2022-12-29T23:44:20.465Z,6.61
2022-12-29T23:46:47.891Z,6.60
2022-12-29T23:49:15.190Z,6.61
2022-12-29T23:51:42.617Z,6.60
2022-12-29T23:54:09.866Z,6.60
2022-12-29T23:56:37.311Z,6.60
2022-12-29T23:59:05.226Z,6.56
